createdAt,value
2023-01-02T00:09:34.443Z,76.69
2023-01-02T00:19:41.512Z,76.96
2023-01-02T00:29:48.835Z,77.17
2023-01-02T00:39:56.127Z,77.41
2023-01-02T00:50:03.133Z,77.53
2023-01-02T01:00:12.194Z,77.57
2023-01-02T01:10:22.594Z,77.92
2023-01-02T01:20:30.319Z,77.92
2023-01-02T01:30:37.352Z,78.22
2023-01-02T01:40:44.598Z,78.35
2023-01-02T01:50:51.519Z,78.35
2023-01-02T02:00:59.864Z,78.23
2023-01-02T02:11:06.329Z,78.31
2023-01-02T02:21:13.286Z,78.52
2023-01-02T02:31:19.415Z,78.73
2023-01-02T02:41:28.596Z,79.35
2023-01-02T02:51:44.265Z,80.06
2023-01-02T03:01:51.706Z,80.46
2023-01-02T03:12:12.293Z,80.90
2023-01-02T03:22:24.815Z,81.01
2023-01-02T03:32:35.052Z,81.27
2023-01-02T03:42:47.714Z,81.25
2023-01-02T03:52:55.421Z,81.26
2023-01-02T04:03:09.455Z,81.46
2023-01-02T04:13:20.385Z,81.61
2023-01-02T04:23:33.539Z,82.00
2023-01-02T04:33:38.664Z,82.66
2023-01-02T04:43:45.963Z,82.54
2023-01-02T04:53:54.368Z,82.35
2023-01-02T05:04:01.613Z,82.17
2023-01-02T05:14:08.893Z,82.13
2023-01-02T05:24:16.089Z,82.17
2023-01-02T05:34:23.133Z,82.09
2023-01-02T05:44:30.132Z,82.04
2023-01-02T05:54:37.422Z,81.84
2023-01-02T06:04:44.626Z,81.76
2023-01-02T06:14:52.036Z,81.76
2023-01-02T06:24:59.165Z,82.39
2023-01-02T06:35:05.767Z,82.59
2023-01-02T06:45:13.092Z,83.01
2023-01-02T06:55:19.223Z,83.16
2023-01-02T07:05:26.246Z,83.30
2023-01-02T07:15:33.099Z,83.64
2023-01-02T07:25:44.407Z,83.88
2023-01-02T07:35:52.293Z,83.99
2023-01-02T07:46:03.557Z,83.86
2023-01-02T07:56:11.250Z,83.64
2023-01-02T08:06:19.249Z,83.45
2023-01-02T08:16:26.681Z,83.38
2023-01-02T08:26:33.807Z,83.12
2023-01-02T08:36:40.954Z,82.44
2023-01-02T08:46:48.156Z,81.30
2023-01-02T08:56:55.594Z,80.43
2023-01-02T09:07:03.007Z,80.14
2023-01-02T09:17:10.629Z,79.45
2023-01-02T09:27:17.886Z,78.29
2023-01-02T09:37:25.104Z,76.41
2023-01-02T09:47:33.089Z,75.20
2023-01-02T09:57:39.301Z,74.97
2023-01-02T10:07:48.546Z,74.66
2023-01-02T10:18:00.309Z,74.74
2023-01-02T10:28:08.492Z,74.35
2023-01-02T10:38:13.347Z,74.10
2023-01-02T10:48:21.722Z,73.75
2023-01-02T10:58:30.814Z,72.77
2023-01-02T11:08:38.970Z,72.12
2023-01-02T11:18:54.350Z,71.44
2023-01-02T11:29:09.212Z,70.82
2023-01-02T11:39:21.345Z,70.81
2023-01-02T11:49:26.127Z,70.88
2023-01-02T11:59:38.138Z,71.08
2023-01-02T12:09:45.949Z,70.49
2023-01-02T12:20:07.218Z,70.43
2023-01-02T12:30:12.416Z,70.35
2023-01-02T12:40:35.299Z,70.32
2023-01-02T12:50:53.231Z,69.94
2023-01-02T13:01:01.886Z,69.78
2023-01-02T13:11:07.274Z,69.96
2023-01-02T13:21:13.487Z,69.94
2023-01-02T13:31:46.606Z,69.87
2023-01-02T13:42:08.971Z,69.69
2023-01-02T13:52:17.368Z,69.82
2023-01-02T14:02:24.670Z,70.25
2023-01-02T14:22:51.559Z,70.41
2023-01-02T14:33:03.821Z,70.80
2023-01-02T14:43:27.958Z,71.13
2023-01-02T14:53:38.744Z,71.48
2023-01-02T15:03:43.975Z,71.91
2023-01-02T15:14:05.154Z,72.21
2023-01-02T15:24:18.181Z,72.51
2023-01-02T15:34:26.471Z,72.87
2023-01-02T15:44:53.156Z,73.27
2023-01-02T15:55:00.635Z,73.65
2023-01-02T16:05:12.381Z,73.91
2023-01-02T16:15:23.296Z,74.36
2023-01-02T16:25:33.063Z,74.97
2023-01-02T16:35:40.197Z,75.40
2023-01-02T16:55:56.415Z,76.16
2023-01-02T17:06:07.832Z,76.46
2023-01-02T17:16:14.410Z,76.65
2023-01-02T17:26:21.633Z,77.55
2023-01-02T17:36:29.331Z,77.76
2023-01-02T17:57:04.514Z,78.29
2023-01-02T18:07:12.190Z,78.54
2023-01-02T18:17:24.367Z,78.67
2023-01-02T18:27:37.333Z,78.85
2023-01-02T18:37:45.005Z,79.32
2023-01-02T18:47:55.351Z,79.32
2023-01-02T18:58:00.086Z,79.64
2023-01-02T19:08:14.731Z,79.79
2023-01-02T19:18:33.808Z,79.89
2023-01-02T19:28:43.067Z,79.99
2023-01-02T19:38:51.338Z,80.27
2023-01-02T19:48:59.285Z,80.53
2023-01-02T19:59:09.485Z,80.73
2023-01-02T20:09:22.214Z,81.07
2023-01-02T20:19:27.732Z,81.16
2023-01-02T20:29:35.296Z,81.16
2023-01-02T20:39:42.627Z,81.35
2023-01-02T20:49:49.980Z,81.32
2023-01-02T20:59:57.385Z,81.40
2023-01-02T21:10:05.073Z,81.58
2023-01-02T21:20:10.934Z,81.81
2023-01-02T21:30:18.612Z,81.79
2023-01-02T21:40:25.794Z,81.97
2023-01-02T21:50:31.602Z,82.04
2023-01-02T22:00:38.890Z,82.18
2023-01-02T22:10:46.278Z,82.26
2023-01-02T22:20:52.388Z,82.33
2023-01-02T22:31:00.676Z,82.43
2023-01-02T22:41:06.798Z,82.43
2023-01-02T22:51:18.417Z,82.39
2023-01-02T23:01:25.075Z,82.61
2023-01-02T23:11:32.260Z,82.54
2023-01-02T23:21:40.698Z,82.83
2023-01-02T23:31:49.583Z,82.84
2023-01-02T23:41:57.393Z,82.85
2023-01-02T23:52:04.724Z,82.87
